Time;durP1;ratioP1;P1;durP2;ratioP2;P2;SDS_P1;SDS_P2;PMS_P1;PMS_P2;Temp;Humidity;BMP_temperature;BMP_pressure;BME280_temperature;BME280_humidity;BME280_pressure;Samples;Min_cycle;Max_cycle;Signal;HPM_P1;HPM_P2
2023/09/14 00:03:13;;;;;;;4.20;3.65;;;18.30;99.90;;;;;;10211420;29;20738;-87
2023/09/14 00:08:17;;;;;;;5.03;4.30;;;18.30;99.90;;;;;;10211161;29;20646;-87
2023/09/14 00:13:19;;;;;;;3.50;3.20;;;18.40;99.90;;;;;;10211012;29;20246;-87
2023/09/14 00:18:22;;;;;;;3.75;3.40;;;18.60;99.90;;;;;;10210715;29;20284;-87
2023/09/14 00:23:24;;;;;;;4.40;3.75;;;18.80;99.90;;;;;;10211260;29;20706;-87
2023/09/14 00:28:27;;;;;;;4.20;3.28;;;18.90;99.90;;;;;;10210749;29;20659;-87
2023/09/14 00:33:31;;;;;;;4.57;3.97;;;18.90;99.90;;;;;;10192705;29;20708;-87
2023/09/14 00:38:33;;;;;;;3.92;3.53;;;18.90;99.90;;;;;;10193265;29;20239;-87
2023/09/14 00:43:37;;;;;;;3.70;3.25;;;18.80;99.90;;;;;;10210232;29;20262;-87
2023/09/14 00:48:40;;;;;;;5.25;4.43;;;19.00;99.90;;;;;;10193009;29;20284;-87
2023/09/14 00:53:43;;;;;;;3.08;2.78;;;19.00;99.90;;;;;;10193361;29;20746;-87
2023/09/14 00:58:47;;;;;;;4.22;3.05;;;19.20;99.90;;;;;;10209612;29;20659;-87
2023/09/14 01:03:50;;;;;;;3.35;3.10;;;19.20;99.90;;;;;;10193204;29;20274;-87
2023/09/14 01:08:54;;;;;;;4.65;3.92;;;19.20;99.90;;;;;;10208863;29;20298;-86
2023/09/14 01:14:11;;;;;;;3.25;2.95;;;19.40;99.90;;;;;;10192437;29;20667;-87
2023/09/14 01:19:14;;;;;;;4.03;3.63;;;19.50;99.90;;;;;;10192306;29;20250;-87
2023/09/14 01:24:24;;;;;;;2.83;2.63;;;19.60;99.90;;;;;;10208812;29;20270;-87
2023/09/14 01:29:26;;;;;;;7.07;4.00;;;19.50;99.90;;;;;;10207162;29;20266;-87
2023/09/14 01:34:30;;;;;;;6.35;3.22;;;19.60;99.90;;;;;;10191078;29;20242;-87
2023/09/14 01:39:35;;;;;;;3.47;2.40;;;19.50;99.90;;;;;;10167648;29;20306;-87
2023/09/14 01:44:39;;;;;;;2.15;1.95;;;19.30;99.90;;;;;;10151131;29;20263;-87
2023/09/14 01:49:41;;;;;;;2.38;2.17;;;19.40;99.90;;;;;;10184952;29;20239;-86
2023/09/14 01:54:44;;;;;;;3.05;2.70;;;19.40;99.90;;;;;;10206106;29;20247;-87
2023/09/14 01:59:47;;;;;;;1.85;1.67;;;19.20;99.90;;;;;;10189694;29;20246;-87
2023/09/14 02:04:49;;;;;;;2.97;2.30;;;19.20;99.90;;;;;;10189981;29;20702;-87
2023/09/14 02:09:52;;;;;;;1.80;1.70;;;19.30;99.90;;;;;;10190254;29;20258;-87
2023/09/14 02:14:54;;;;;;;2.08;1.88;;;19.10;99.90;;;;;;10189536;29;20243;-87
2023/09/14 02:19:58;;;;;;;1.95;1.08;;;19.00;99.90;;;;;;10207139;29;20278;-87
2023/09/14 02:25:01;;;;;;;1.38;1.27;;;18.80;99.90;;;;;;10207010;29;20624;-86
2023/09/14 02:30:05;;;;;;;2.63;1.48;;;18.60;99.90;;;;;;10206541;29;20267;-87
2023/09/14 02:35:08;;;;;;;4.60;2.15;;;18.90;99.90;;;;;;10189349;29;20254;-87
2023/09/14 02:40:11;;;;;;;1.70;1.60;;;18.90;99.90;;;;;;10190532;29;20254;-86
2023/09/14 02:45:13;;;;;;;1.73;1.48;;;18.70;99.90;;;;;;10197663;29;21032;-87
2023/09/14 02:50:16;;;;;;;1.30;1.20;;;18.30;99.90;;;;;;10197545;29;20266;-86
2023/09/14 02:55:19;;;;;;;1.92;1.70;;;18.20;99.90;;;;;;10195298;29;20329;-86
2023/09/14 03:00:22;;;;;;;1.63;1.52;;;18.30;99.90;;;;;;10209028;29;20246;-86
2023/09/14 03:05:27;;;;;;;1.77;0.98;;;18.10;99.90;;;;;;10197294;29;20305;-86
2023/09/14 03:10:30;;;;;;;1.30;1.02;;;18.00;99.90;;;;;;10197562;29;20234;-86
2023/09/14 03:15:34;;;;;;;1.73;1.40;;;18.00;99.90;;;;;;10213837;29;20784;-85
2023/09/14 03:20:38;;;;;;;2.00;1.80;;;17.80;99.90;;;;;;10196832;29;20254;-86
2023/09/14 03:25:41;;;;;;;1.40;1.30;;;17.80;99.90;;;;;;10195835;29;20318;-86
2023/09/14 03:30:44;;;;;;;2.08;1.63;;;17.80;99.90;;;;;;10195572;29;20247;-86
2023/09/14 03:35:47;;;;;;;1.85;1.42;;;17.80;99.90;;;;;;10195633;29;20222;-86
2023/09/14 03:40:50;;;;;;;2.35;1.45;;;17.70;99.90;;;;;;10196582;29;20308;-86
2023/09/14 03:45:52;;;;;;;2.25;1.30;;;17.50;99.90;;;;;;10212902;29;20262;-86
2023/09/14 03:50:58;;;;;;;3.70;1.38;;;17.60;99.90;;;;;;10195132;29;20278;-86
2023/09/14 03:56:02;;;;;;;6.22;2.03;;;17.40;99.90;;;;;;10211346;29;20302;-86
2023/09/14 04:01:06;;;;;;;3.92;2.63;;;17.60;99.90;;;;;;10195410;29;20247;-86
2023/09/14 04:06:09;;;;;;;6.18;2.83;;;17.60;99.90;;;;;;10194621;29;20254;-86
2023/09/14 04:11:12;;;;;;;3.75;2.92;;;17.50;99.90;;;;;;10212041;29;20234;-86
2023/09/14 04:16:14;;;;;;;4.15;2.67;;;17.40;99.90;;;;;;10179183;29;20268;-86
2023/09/14 04:21:21;;;;;;;3.63;2.47;;;17.70;99.90;;;;;;10193839;29;20246;-86
2023/09/14 04:26:26;;;;;;;6.03;3.25;;;17.60;99.90;;;;;;10193620;29;20337;-86
2023/09/14 04:31:29;;;;;;;2.92;2.05;;;17.50;99.90;;;;;;10209845;29;20234;-85
2023/09/14 04:36:32;;;;;;;4.68;2.45;;;17.70;99.90;;;;;;10193033;29;20254;-87
2023/09/14 04:41:35;;;;;;;3.25;2.92;;;17.90;99.90;;;;;;10192914;29;20242;-86
2023/09/14 04:46:38;;;;;;;4.38;2.55;;;18.00;99.90;;;;;;10192828;29;20281;-86
2023/09/14 04:51:40;;;;;;;4.18;3.30;;;17.90;99.90;;;;;;10210517;29;20638;-85
2023/09/14 04:56:44;;;;;;;2.80;2.60;;;17.90;99.90;;;;;;10192508;29;20266;-86
2023/09/14 05:01:48;;;;;;;4.00;3.53;;;17.80;99.90;;;;;;10190849;29;20298;-86
2023/09/14 05:06:50;;;;;;;5.95;3.22;;;17.80;99.90;;;;;;10168026;29;20262;-85
2023/09/14 05:11:53;;;;;;;7.05;3.97;;;17.60;99.90;;;;;;10200024;29;20747;-83
2023/09/14 05:16:56;;;;;;;4.45;3.97;;;17.60;99.90;;;;;;10209369;29;20276;-84
2023/09/14 05:21:59;;;;;;;4.90;3.90;;;17.00;99.90;;;;;;10190376;29;20254;-84
2023/09/14 05:27:02;;;;;;;6.32;3.50;;;16.30;99.90;;;;;;10188617;29;20317;-83
2023/09/14 05:32:05;;;;;;;4.68;4.22;;;16.30;99.90;;;;;;10191619;29;20242;-83
2023/09/14 05:37:08;;;;;;;5.43;2.75;;;17.00;99.90;;;;;;10191114;29;20313;-84
2023/09/14 05:42:10;;;;;;;5.43;4.25;;;17.40;99.90;;;;;;10191281;29;20227;-83
2023/09/14 05:47:14;;;;;;;5.63;3.40;;;17.80;99.90;;;;;;10190440;29;20376;-83
2023/09/14 05:52:17;;;;;;;4.72;3.22;;;17.90;99.90;;;;;;10175537;29;20242;-84
2023/09/14 05:57:20;;;;;;;5.03;3.08;;;18.20;99.90;;;;;;10190904;29;20661;-83
2023/09/14 06:02:23;;;;;;;4.13;3.60;;;18.50;99.90;;;;;;10207989;29;20688;-84
2023/09/14 06:07:25;;;;;;;9.93;4.22;;;18.60;99.90;;;;;;10190461;29;20290;-83
2023/09/14 06:12:29;;;;;;;4.28;3.53;;;18.50;99.90;;;;;;10207485;29;20243;-83
2023/09/14 06:17:32;;;;;;;4.53;3.28;;;18.60;99.90;;;;;;10206798;29;20297;-83
2023/09/14 06:22:34;;;;;;;3.25;2.92;;;18.50;99.90;;;;;;10207156;29;20234;-83
2023/09/14 06:27:37;;;;;;;4.60;3.67;;;18.50;99.90;;;;;;10207363;29;20258;-83
2023/09/14 06:32:40;;;;;;;5.57;2.80;;;18.60;99.90;;;;;;10207294;29;20238;-83
2023/09/14 06:37:42;;;;;;;3.08;2.45;;;18.60;99.90;;;;;;10205493;29;20286;-83
2023/09/14 06:42:45;;;;;;;3.20;2.63;;;18.70;99.90;;;;;;10190291;29;20278;-83
2023/09/14 06:47:47;;;;;;;7.13;3.50;;;18.70;99.90;;;;;;10207233;29;20646;-83
2023/09/14 06:52:50;;;;;;;5.82;2.83;;;19.00;99.90;;;;;;10190160;29;20289;-83
2023/09/14 06:57:53;;;;;;;2.85;2.30;;;19.10;99.90;;;;;;10204661;29;20270;-84
2023/09/14 07:02:56;;;;;;;8.45;3.25;;;19.30;99.90;;;;;;10197823;29;20242;-82
2023/09/14 07:07:59;;;;;;;3.67;2.83;;;19.50;99.90;;;;;;10183120;29;20325;-82
2023/09/14 07:13:01;;;;;;;4.32;2.90;;;19.30;99.90;;;;;;10166791;29;20307;-82
2023/09/14 07:18:04;;;;;;;12.00;3.20;;;19.10;99.90;;;;;;10167346;29;20651;-82
2023/09/14 07:23:07;;;;;;;3.38;3.08;;;19.70;99.90;;;;;;10166726;29;20302;-82
2023/09/14 07:28:11;;;;;;;5.03;3.00;;;20.10;99.90;;;;;;10200600;29;20325;-82
2023/09/14 07:33:15;;;;;;;6.15;4.05;;;20.40;99.90;;;;;;10212793;29;20239;-83
2023/09/14 07:38:17;;;;;;;7.85;3.70;;;20.10;99.70;;;;;;10212678;29;20294;-82
2023/09/14 07:43:20;;;;;;;4.68;4.03;;;19.90;99.90;;;;;;10210482;29;20247;-82
2023/09/14 07:48:22;;;;;;;6.22;4.00;;;20.30;99.90;;;;;;10205172;29;20297;-82
2023/09/14 07:53:25;;;;;;;6.95;3.03;;;19.90;99.90;;;;;;10211002;29;20238;-83
2023/09/14 07:58:27;;;;;;;5.68;2.47;;;19.70;99.90;;;;;;10210239;29;20262;-83
2023/09/14 08:03:30;;;;;;;3.42;2.92;;;20.10;99.90;;;;;;10189146;29;20253;-83
2023/09/14 08:08:33;;;;;;;7.85;2.97;;;20.10;99.90;;;;;;10193972;29;20274;-83
2023/09/14 08:13:35;;;;;;;4.40;3.28;;;20.40;99.90;;;;;;10210925;29;20242;-82
2023/09/14 08:18:38;;;;;;;3.63;2.35;;;20.30;99.10;;;;;;10210834;29;20242;-82
2023/09/14 08:23:40;;;;;;;3.28;2.85;;;20.70;99.90;;;;;;10209063;29;20302;-82
2023/09/14 08:28:43;;;;;;;3.38;2.05;;;21.00;99.40;;;;;;10193567;29;20243;-81
2023/09/14 08:33:47;;;;;;;5.82;3.28;;;21.60;99.90;;;;;;10193251;29;20305;-82
2023/09/14 08:38:50;;;;;;;4.10;3.17;;;21.60;99.90;;;;;;10198189;29;20315;-82
2023/09/14 08:44:05;;;;;;;4.60;2.15;;;21.50;99.90;;;;;;10169821;29;20255;-82
2023/09/14 08:49:11;;;;;;;3.75;2.88;;;21.70;99.90;;;;;;10207162;29;20239;-82
2023/09/14 08:54:14;;;;;;;2.90;2.38;;;21.60;99.90;;;;;;10191728;29;20242;-82
2023/09/14 08:59:22;;;;;;;4.68;3.40;;;21.90;99.90;;;;;;10193741;29;20285;-82
2023/09/14 09:04:25;;;;;;;4.80;3.40;;;22.20;99.90;;;;;;10245543;29;20317;-82
2023/09/14 09:09:28;;;;;;;3.25;2.85;;;21.60;99.90;;;;;;10209397;29;20692;-82
2023/09/14 09:14:31;;;;;;;2.03;1.83;;;22.10;99.90;;;;;;10192656;29;20246;-82
2023/09/14 09:19:47;;;;;;;3.75;2.40;;;22.30;99.90;;;;;;10206195;29;20270;-82
2023/09/14 09:24:54;;;;;;;3.55;2.00;;;22.50;98.80;;;;;;10208930;29;20250;-82
2023/09/14 09:29:58;;;;;;;3.30;2.72;;;22.80;99.00;;;;;;10209558;29;20301;-82
2023/09/14 09:35:16;;;;;;;6.43;3.75;;;22.80;99.10;;;;;;10209156;29;20250;-82
2023/09/14 09:40:24;;;;;;;4.00;3.28;;;22.20;97.30;;;;;;10189677;29;20620;-82
2023/09/14 09:45:27;;;;;;;5.57;2.72;;;22.50;99.20;;;;;;10191387;29;20322;-82
2023/09/14 09:50:30;;;;;;;3.15;2.35;;;22.40;99.90;;;;;;10207186;29;20246;-82
2023/09/14 09:55:32;;;;;;;3.08;2.35;;;21.80;99.60;;;;;;10205887;29;20324;-82
2023/09/14 10:00:39;;;;;;;5.57;3.40;;;22.40;99.90;;;;;;10206080;29;20282;-82
2023/09/14 10:05:45;;;;;;;4.15;1.98;;;22.20;99.90;;;;;;10188308;29;20316;-82
2023/09/14 10:10:52;;;;;;;3.67;2.53;;;22.00;99.90;;;;;;10206581;29;20682;-82
2023/09/14 10:15:56;;;;;;;2.70;2.22;;;22.10;99.60;;;;;;10188627;29;20243;-82
2023/09/14 10:20:59;;;;;;;3.78;2.40;;;22.30;99.90;;;;;;10206668;29;20242;-82
2023/09/14 10:26:02;;;;;;;3.15;2.72;;;22.60;99.90;;;;;;10186587;29;20258;-82
2023/09/14 10:31:06;;;;;;;3.15;2.78;;;22.40;99.90;;;;;;10185058;29;20310;-82
2023/09/14 10:36:09;;;;;;;3.35;2.30;;;22.00;99.90;;;;;;10167208;29;20657;-82
2023/09/14 10:41:13;;;;;;;4.65;3.30;;;22.10;99.90;;;;;;10167033;29;20317;-82
2023/09/14 10:46:21;;;;;;;2.40;2.20;;;22.10;99.90;;;;;;10180108;29;20380;-82
2023/09/14 10:51:24;;;;;;;6.47;4.10;;;21.90;99.90;;;;;;10206032;29;20674;-82
2023/09/14 10:56:33;;;;;;;4.70;3.70;;;21.90;99.90;;;;;;10204616;29;20329;-82
2023/09/14 11:01:47;;;;;;;2.67;2.38;;;22.20;99.90;;;;;;10189708;29;20282;-82
2023/09/14 11:06:59;;;;;;;2.00;1.75;;;22.20;99.90;;;;;;10187654;29;20325;-82
2023/09/14 11:12:19;;;;;;;2.70;2.33;;;22.50;99.90;;;;;;10200460;29;20250;-82
2023/09/14 11:17:24;;;;;;;4.07;2.00;;;23.00;99.90;;;;;;10197845;29;20247;-82
2023/09/14 11:22:27;;;;;;;3.75;2.58;;;22.90;99.90;;;;;;10213591;29;20246;-82
2023/09/14 11:27:33;;;;;;;4.00;2.13;;;22.90;99.90;;;;;;10212468;29;20271;-82
2023/09/14 11:32:39;;;;;;;2.67;2.05;;;23.00;99.90;;;;;;10212282;29;20239;-82
2023/09/14 11:37:46;;;;;;;2.58;2.38;;;23.00;99.90;;;;;;10192514;29;20263;-82
2023/09/14 11:43:07;;;;;;;2.65;2.28;;;22.90;99.90;;;;;;10178459;29;20303;-82
2023/09/14 11:48:18;;;;;;;4.93;2.53;;;23.60;99.90;;;;;;10208312;29;20266;-82
2023/09/14 11:53:24;;;;;;;1.92;1.73;;;23.60;99.90;;;;;;10238356;29;20754;-82
2023/09/14 11:58:31;;;;;;;3.38;2.40;;;23.30;99.90;;;;;;10249127;29;20249;-82
2023/09/14 12:03:37;;;;;;;3.90;2.72;;;23.00;99.90;;;;;;10246182;29;20736;-81
2023/09/14 12:08:47;;;;;;;4.38;2.40;;;22.80;99.90;;;;;;10241808;29;20325;-82
2023/09/14 12:13:53;;;;;;;5.97;2.70;;;22.60;99.90;;;;;;10221005;29;20278;-81
2023/09/14 12:18:56;;;;;;;2.47;2.22;;;22.20;99.90;;;;;;10244549;29;20302;-82
2023/09/14 12:24:00;;;;;;;2.25;2.05;;;22.40;99.90;;;;;;10245366;29;20684;-82
2023/09/14 12:29:03;;;;;;;2.92;2.45;;;22.40;98.60;;;;;;10228659;29;20341;-82
2023/09/14 12:34:07;;;;;;;3.33;2.75;;;22.50;99.20;;;;;;10210276;29;20301;-83
2023/09/14 12:39:15;;;;;;;3.33;2.22;;;22.30;99.90;;;;;;10192967;29;20266;-83
2023/09/14 12:44:19;;;;;;;3.80;2.60;;;22.20;99.90;;;;;;10193238;29;20246;-82
2023/09/14 12:49:23;;;;;;;4.18;2.42;;;22.20;99.90;;;;;;10209827;29;20301;-82
2023/09/14 18:32:05;;;;;;;11.15;2.72;;;18.80;99.90;;;;;;10118521;28;10002042;-81
2023/09/14 18:37:07;;;;;;;5.90;2.97;;;18.30;99.90;;;;;;10478356;28;20374;-82
2023/09/14 18:42:10;;;;;;;10.50;3.20;;;18.30;99.90;;;;;;10473157;28;20250;-82
2023/09/14 18:47:12;;;;;;;12.38;3.08;;;18.30;99.90;;;;;;10480799;28;20284;-82
2023/09/14 18:52:15;;;;;;;5.38;2.90;;;18.20;99.90;;;;;;10460855;28;20312;-81
2023/09/14 18:57:17;;;;;;;8.43;2.63;;;18.10;99.90;;;;;;10464457;28;20304;-83
2023/09/14 19:02:20;;;;;;;4.45;2.70;;;17.70;99.90;;;;;;10438787;28;20231;-82
2023/09/14 19:07:22;;;;;;;9.52;2.85;;;17.40;99.80;;;;;;10436961;28;20239;-83
2023/09/14 19:12:25;;;;;;;4.28;3.05;;;17.20;97.20;;;;;;10451535;28;20269;-82
2023/09/14 19:17:28;;;;;;;8.38;2.25;;;17.00;96.90;;;;;;10456137;28;20246;-82
2023/09/14 19:22:30;;;;;;;16.75;3.85;;;16.60;98.90;;;;;;10462976;28;20253;-81
2023/09/14 19:27:33;;;;;;;11.15;4.32;;;16.30;99.90;;;;;;10474233;28;20261;-81
2023/09/14 19:32:39;;;;;;;8.10;3.05;;;16.00;99.90;;;;;;10472193;28;20245;-81
2023/09/14 19:37:42;;;;;;;7.72;2.70;;;15.80;99.90;;;;;;10492188;28;20319;-81
2023/09/14 19:42:45;;;;;;;5.95;3.03;;;15.60;99.90;;;;;;10474768;28;20684;-81
2023/09/14 19:47:47;;;;;;;5.95;3.05;;;15.40;99.90;;;;;;10490507;28;20234;-81
2023/09/14 19:52:50;;;;;;;9.52;3.05;;;15.20;99.90;;;;;;10491469;28;20238;-81
2023/09/14 19:57:52;;;;;;;8.00;3.40;;;15.10;99.90;;;;;;10492622;28;20246;-80
2023/09/14 20:02:55;;;;;;;4.28;2.90;;;15.10;99.90;;;;;;10492302;28;21038;-81
2023/09/14 20:08:08;;;;;;;4.30;3.13;;;15.00;99.90;;;;;;10490663;28;20230;-80
2023/09/14 20:13:11;;;;;;;5.13;3.78;;;15.10;99.90;;;;;;10472128;28;20279;-80
2023/09/14 20:18:14;;;;;;;7.57;3.08;;;15.10;99.90;;;;;;10491397;28;20253;-81
2023/09/14 20:23:16;;;;;;;8.18;3.40;;;14.90;99.90;;;;;;10472298;28;20234;-81
2023/09/14 20:28:22;;;;;;;8.63;3.47;;;14.70;99.90;;;;;;10490756;28;20266;-82
2023/09/14 20:33:25;;;;;;;10.35;3.75;;;14.50;99.90;;;;;;10470410;28;20768;-82
2023/09/14 20:38:28;;;;;;;6.28;3.35;;;14.30;99.90;;;;;;10488510;28;20295;-81
2023/09/14 20:43:30;;;;;;;5.97;3.40;;;14.20;99.90;;;;;;10471510;28;20237;-81
2023/09/14 20:48:34;;;;;;;10.63;3.90;;;14.00;99.90;;;;;;10474767;28;20294;-81
2023/09/14 20:53:40;;;;;;;9.38;3.22;;;13.90;99.90;;;;;;10465276;28;20237;-81
2023/09/14 20:58:42;;;;;;;4.00;3.20;;;13.70;99.90;;;;;;10471181;28;20616;-81
2023/09/14 21:03:45;;;;;;;6.32;3.50;;;13.60;99.90;;;;;;10480745;28;20783;-81
2023/09/14 21:08:47;;;;;;;9.00;3.65;;;13.50;99.90;;;;;;10484353;28;20234;-82
2023/09/14 21:13:51;;;;;;;5.95;3.67;;;13.40;99.90;;;;;;10478856;28;20241;-81
2023/09/14 21:18:53;;;;;;;4.85;2.95;;;13.40;99.90;;;;;;10444165;28;20345;-82
2023/09/14 21:23:57;;;;;;;5.05;3.03;;;13.40;99.90;;;;;;10482768;28;20233;-83
2023/09/14 21:29:00;;;;;;;9.93;3.50;;;13.30;99.90;;;;;;10475880;28;20258;-82
2023/09/14 21:34:03;;;;;;;7.38;3.38;;;13.40;99.90;;;;;;10492147;28;20660;-82
2023/09/14 21:39:05;;;;;;;7.60;3.67;;;13.40;99.90;;;;;;10491833;28;20670;-82
2023/09/14 21:44:08;;;;;;;5.55;3.53;;;13.50;99.90;;;;;;10491528;28;20226;-85
2023/09/14 21:49:30;;;;;;;5.63;3.00;;;13.60;99.90;;;;;;10470426;28;20238;-83
2023/09/14 21:54:34;;;;;;;5.72;3.40;;;13.70;99.90;;;;;;10435609;28;20207;-82
2023/09/14 21:59:38;;;;;;;5.35;3.17;;;13.80;99.90;;;;;;10489022;28;20771;-82
2023/09/14 22:04:41;;;;;;;4.07;3.20;;;13.90;99.90;;;;;;10472986;28;20271;-82
2023/09/14 22:09:43;;;;;;;7.38;3.25;;;13.90;99.90;;;;;;10489626;28;20268;-82
2023/09/14 22:14:46;;;;;;;8.93;3.80;;;13.90;99.90;;;;;;10490832;28;20611;-82
2023/09/14 22:19:50;;;;;;;4.82;3.40;;;13.80;99.90;;;;;;10489532;28;20804;-82
2023/09/14 22:24:52;;;;;;;4.25;2.95;;;13.70;99.90;;;;;;10472785;28;20225;-82
2023/09/14 22:29:55;;;;;;;4.00;3.60;;;13.50;99.90;;;;;;10471801;28;20265;-82
2023/09/14 22:34:57;;;;;;;7.43;3.10;;;13.40;99.90;;;;;;10449524;28;20195;-82
2023/09/14 22:40:00;;;;;;;4.68;3.28;;;13.30;99.90;;;;;;10449108;28;20245;-82
2023/09/14 22:45:05;;;;;;;4.88;3.40;;;13.30;99.90;;;;;;10473784;28;20713;-82
2023/09/14 22:50:08;;;;;;;5.88;3.50;;;13.30;99.90;;;;;;10456406;28;20276;-82
2023/09/14 22:55:11;;;;;;;5.35;3.40;;;13.30;99.90;;;;;;10488990;28;20761;-82
2023/09/14 23:00:16;;;;;;;10.10;3.53;;;13.30;99.90;;;;;;10472356;28;20249;-82
2023/09/14 23:05:19;;;;;;;11.20;4.80;;;13.30;99.90;;;;;;10492530;28;20218;-82
2023/09/14 23:10:21;;;;;;;5.68;3.00;;;13.40;99.90;;;;;;10483640;28;20272;-82
2023/09/14 23:15:26;;;;;;;4.10;3.05;;;13.50;99.90;;;;;;10462806;28;20784;-82
2023/09/14 23:20:31;;;;;;;4.28;3.33;;;13.60;99.90;;;;;;10495735;28;20716;-83
2023/09/14 23:25:33;;;;;;;8.68;3.08;;;13.60;99.90;;;;;;10496218;28;20662;-82
2023/09/14 23:30:36;;;;;;;4.75;3.33;;;13.60;99.90;;;;;;10497107;28;20280;-82
2023/09/14 23:35:39;;;;;;;5.80;3.63;;;13.60;99.90;;;;;;10482072;28;20247;-83
2023/09/14 23:40:41;;;;;;;5.15;3.63;;;13.50;99.90;;;;;;10455438;28;20255;-82
2023/09/14 23:45:44;;;;;;;7.95;3.92;;;13.50;99.90;;;;;;10437830;28;20235;-82
2023/09/14 23:50:47;;;;;;;5.55;3.85;;;13.30;99.90;;;;;;10487266;28;20700;-82
2023/09/14 23:55:50;;;;;;;6.30;4.13;;;13.30;99.90;;;;;;10496172;28;20259;-82
